Riverside, Maryland
Current Conditions -  °F | °C
As of 7:50 PM on Monday 22 Dec 2014 (Local Time) from KMTN Reporting Station
Drizzle Drizzle  
Wind Chill: 39°   Ceiling: 1700
Heat Index: 39°   Visibility: 3mi
Dew Point: 37°   Wind: 3mph
Humidity: 93%   Direction: 320°NW
Pressure: 30.17"   Gusts: NA
Location:  39.4764°N, 76.2372°W
Report Text: KMTN 230050Z 32003KT 3SM -DZ SCT009 OVC017 04/03 A3017
Loading
Personal Weather Stations






























Interactive Weather Map New forecast layout! Learn more

10-Day Weather Forecast

Advertisements
Track Severe Weather on mobile